createdAt,value
2019-02-18T00:00:47.511Z,12.90
2019-02-18T00:03:16.235Z,12.10
2019-02-18T00:05:45.145Z,12.33
2019-02-18T00:08:13.848Z,12.30
2019-02-18T00:10:42.692Z,12.10
2019-02-18T00:13:11.446Z,12.20
2019-02-18T00:15:40.267Z,12.93
2019-02-18T00:18:08.998Z,13.00
2019-02-18T00:20:37.803Z,11.80
2019-02-18T00:23:06.516Z,13.43
2019-02-18T00:25:35.337Z,11.53
2019-02-18T00:28:04.133Z,11.60
2019-02-18T00:30:32.944Z,12.73
2019-02-18T00:33:01.680Z,12.17
2019-02-18T00:35:30.477Z,12.30
2019-02-18T00:37:59.344Z,12.60
2019-02-18T00:40:28.063Z,11.83
2019-02-18T00:42:56.767Z,12.27
2019-02-18T00:45:25.504Z,12.63
2019-02-18T00:47:54.332Z,13.03
2019-02-18T00:50:23.066Z,11.63
2019-02-18T00:52:51.817Z,11.70
2019-02-18T00:55:20.640Z,12.07
2019-02-18T00:57:49.409Z,11.33
2019-02-18T01:00:18.159Z,12.00
2019-02-18T01:02:46.962Z,11.77
2019-02-18T01:05:15.676Z,11.77
2019-02-18T01:07:44.406Z,10.93
2019-02-18T01:10:13.236Z,10.87
2019-02-18T01:12:41.956Z,12.40
2019-02-18T01:15:11.215Z,12.13
2019-02-18T01:17:39.947Z,11.60
2019-02-18T01:20:09.105Z,11.93
2019-02-18T01:22:37.825Z,11.50
2019-02-18T01:25:07.511Z,12.17
2019-02-18T01:27:36.297Z,10.80
2019-02-18T01:30:05.479Z,12.13
2019-02-18T01:32:34.271Z,11.17
2019-02-18T01:35:03.060Z,11.37
2019-02-18T01:37:31.801Z,11.20
2019-02-18T01:40:00.590Z,11.10
2019-02-18T01:42:29.349Z,11.17
2019-02-18T01:44:58.116Z,11.27
2019-02-18T01:47:26.852Z,10.70
2019-02-18T01:49:58.557Z,10.23
2019-02-18T01:52:27.370Z,10.57
2019-02-18T01:54:56.142Z,11.37
2019-02-18T01:57:24.876Z,11.33
2019-02-18T01:59:53.606Z,11.33
2019-02-18T02:02:22.407Z,10.90
2019-02-18T02:04:51.116Z,11.27
2019-02-18T02:07:20.251Z,11.37
2019-02-18T02:09:49.010Z,9.83
2019-02-18T02:12:17.813Z,11.67
2019-02-18T02:14:46.562Z,10.23
2019-02-18T02:17:15.374Z,11.33
2019-02-18T02:19:44.151Z,10.97
2019-02-18T02:22:12.856Z,10.20
2019-02-18T02:24:41.498Z,10.40
2019-02-18T02:27:10.280Z,11.17
2019-02-18T02:29:38.996Z,10.30
2019-02-18T02:32:07.810Z,9.27
2019-02-18T02:34:36.530Z,9.73
2019-02-18T02:37:05.310Z,9.83
2019-02-18T02:39:34.083Z,10.50
2019-02-18T02:42:02.897Z,10.47
2019-02-18T02:44:31.611Z,9.60
2019-02-18T02:47:00.324Z,10.77
2019-02-18T02:49:29.067Z,11.10
2019-02-18T02:51:58.002Z,10.63
2019-02-18T02:54:26.812Z,10.07
2019-02-18T02:56:55.580Z,9.93
2019-02-18T02:59:24.383Z,8.97
2019-02-18T03:01:53.092Z,11.23
2019-02-18T03:04:21.882Z,11.03
2019-02-18T03:06:50.666Z,10.10
2019-02-18T03:09:19.413Z,10.07
2019-02-18T03:11:48.195Z,10.53
2019-02-18T03:14:16.954Z,11.07
2019-02-18T03:16:45.949Z,10.17
2019-02-18T03:19:14.755Z,10.47
2019-02-18T03:21:43.491Z,9.70
2019-02-18T03:24:12.244Z,11.33
2019-02-18T03:26:41.033Z,10.10
2019-02-18T03:29:19.833Z,10.47
2019-02-18T03:31:48.541Z,10.53
2019-02-18T03:34:22.736Z,10.07
2019-02-18T03:36:51.454Z,9.80
2019-02-18T03:39:20.199Z,10.40
2019-02-18T03:41:48.929Z,10.00
2019-02-18T03:44:17.620Z,10.33
2019-02-18T03:46:46.363Z,9.70
2019-02-18T03:49:15.240Z,10.07
2019-02-18T03:51:44.028Z,10.33
2019-02-18T03:54:13.487Z,10.23
2019-02-18T03:56:42.485Z,9.67
2019-02-18T03:59:11.246Z,10.80
2019-02-18T04:01:40.033Z,10.73
2019-02-18T04:04:08.812Z,9.20
2019-02-18T04:06:37.622Z,10.80
2019-02-18T04:09:06.435Z,11.90
2019-02-18T04:11:35.162Z,10.70
2019-02-18T04:14:03.964Z,9.57
2019-02-18T04:16:32.785Z,10.97
2019-02-18T04:19:01.604Z,11.43
2019-02-18T04:21:30.394Z,10.80
2019-02-18T04:23:59.290Z,11.27
2019-02-18T04:26:28.016Z,10.00
2019-02-18T04:28:56.797Z,9.57
2019-02-18T04:31:25.520Z,10.13
2019-02-18T04:33:54.344Z,9.57
2019-02-18T04:36:23.115Z,10.03
2019-02-18T04:38:54.430Z,9.60
2019-02-18T04:41:22.300Z,9.27
2019-02-18T04:43:51.013Z,9.60
2019-02-18T04:46:19.746Z,9.77
2019-02-18T04:48:48.559Z,9.10
2019-02-18T04:51:17.365Z,9.03
2019-02-18T04:53:46.163Z,8.63
2019-02-18T04:56:14.896Z,9.13
2019-02-18T04:58:43.687Z,9.50
2019-02-18T05:01:12.486Z,10.13
2019-02-18T05:03:41.181Z,10.17
2019-02-18T05:06:09.900Z,10.10
2019-02-18T05:08:38.711Z,9.53
2019-02-18T05:11:07.439Z,9.37
2019-02-18T05:13:36.166Z,10.90
2019-02-18T05:16:04.995Z,8.93
2019-02-18T05:18:33.811Z,9.10
2019-02-18T05:21:02.606Z,9.17
2019-02-18T05:23:31.581Z,9.03
2019-02-18T05:26:00.365Z,9.87
2019-02-18T05:28:29.138Z,9.33
2019-02-18T05:30:57.859Z,9.10
2019-02-18T05:33:26.576Z,10.37
2019-02-18T05:35:56.015Z,10.40
2019-02-18T05:38:24.898Z,8.97
2019-02-18T05:40:53.962Z,8.57
2019-02-18T05:43:22.722Z,9.17
2019-02-18T05:45:51.560Z,9.30
2019-02-18T05:48:20.366Z,9.80
2019-02-18T05:50:49.437Z,8.50
2019-02-18T05:53:18.247Z,8.83
2019-02-18T05:55:47.076Z,8.33
2019-02-18T05:58:15.807Z,9.37
2019-02-18T06:00:44.559Z,8.67
2019-02-18T06:03:13.387Z,9.37
2019-02-18T06:05:42.182Z,8.17
2019-02-18T06:08:10.959Z,8.97
2019-02-18T06:10:39.748Z,9.17
2019-02-18T06:13:08.500Z,9.47
2019-02-18T06:15:37.264Z,8.63
2019-02-18T06:18:06.133Z,9.77
2019-02-18T06:20:34.914Z,10.53
2019-02-18T06:23:03.738Z,8.47
2019-02-18T06:25:32.548Z,8.83
2019-02-18T06:28:01.281Z,9.53
2019-02-18T06:30:30.111Z,9.07
2019-02-18T06:33:01.092Z,8.70
2019-02-18T06:35:29.377Z,9.37
2019-02-18T06:37:58.191Z,9.10
2019-02-18T06:40:26.919Z,8.53
2019-02-18T06:42:55.765Z,9.20
2019-02-18T06:45:32.287Z,9.20
2019-02-18T06:48:02.760Z,9.63
2019-02-18T06:50:31.552Z,9.27
2019-02-18T06:53:00.358Z,9.90
2019-02-18T06:55:29.091Z,9.70
2019-02-18T06:58:25.736Z,8.33
2019-02-18T07:01:08.685Z,8.87
2019-02-18T07:03:56.444Z,8.97
2019-02-18T07:06:59.676Z,9.23
2019-02-18T07:09:51.538Z,9.80
2019-02-18T07:12:32.421Z,10.20
2019-02-18T07:15:01.178Z,8.00
2019-02-18T07:17:29.918Z,8.23
2019-02-18T07:19:58.768Z,9.03
2019-02-18T07:22:27.526Z,8.33
2019-02-18T07:24:56.261Z,9.27
2019-02-18T07:27:24.984Z,8.90
2019-02-18T07:29:53.860Z,9.97
2019-02-18T07:32:22.637Z,10.27
2019-02-18T07:34:51.424Z,9.33
2019-02-18T07:37:20.156Z,9.10
2019-02-18T07:39:48.999Z,9.03
2019-02-18T07:42:17.803Z,9.37
2019-02-18T07:44:46.583Z,9.77
2019-02-18T07:47:15.283Z,9.37
2019-02-18T07:49:44.083Z,9.57
2019-02-18T07:52:12.896Z,9.33
2019-02-18T07:54:41.625Z,9.30
2019-02-18T07:57:10.447Z,9.03
2019-02-18T07:59:39.203Z,9.70
2019-02-18T08:02:07.932Z,9.13
2019-02-18T08:04:36.732Z,9.57
2019-02-18T08:07:05.465Z,9.43
2019-02-18T08:09:34.266Z,10.83
2019-02-18T08:12:03.082Z,9.50
2019-02-18T08:14:31.798Z,9.50
2019-02-18T08:17:00.668Z,10.17
2019-02-18T08:19:31.317Z,9.27
2019-02-18T08:22:00.102Z,9.20
2019-02-18T08:24:28.852Z,9.43
2019-02-18T08:26:57.633Z,9.67
2019-02-18T08:29:26.436Z,9.57
2019-02-18T08:31:55.266Z,9.23
2019-02-18T08:34:23.992Z,9.77
2019-02-18T08:36:52.700Z,9.77
2019-02-18T08:39:21.522Z,9.30
2019-02-18T08:41:50.394Z,9.67
2019-02-18T08:44:19.173Z,9.53
2019-02-18T08:46:47.925Z,10.13
2019-02-18T08:49:16.681Z,10.30
2019-02-18T08:51:45.485Z,9.57
2019-02-18T08:54:14.237Z,9.40
2019-02-18T08:56:43.007Z,10.30
2019-02-18T08:59:11.919Z,10.93
2019-02-18T09:01:40.648Z,9.90
2019-02-18T09:04:09.367Z,10.40
2019-02-18T09:06:38.094Z,10.23
2019-02-18T09:09:06.916Z,11.10
2019-02-18T09:11:35.635Z,10.57
2019-02-18T09:14:04.380Z,10.97
2019-02-18T09:16:33.219Z,10.40
2019-02-18T09:19:03.046Z,10.67
2019-02-18T09:21:33.546Z,11.37
2019-02-18T09:24:12.979Z,10.53
2019-02-18T09:26:41.710Z,10.80
2019-02-18T09:29:13.198Z,11.00
2019-02-18T09:31:42.884Z,10.27
2019-02-18T09:34:11.883Z,10.43
2019-02-18T09:36:40.614Z,9.40
2019-02-18T09:39:30.058Z,9.63
2019-02-18T09:41:49.875Z,10.23
2019-02-18T09:44:18.594Z,10.83
2019-02-18T09:46:47.411Z,10.20
2019-02-18T09:49:16.141Z,10.37
2019-02-18T09:51:44.905Z,10.03
2019-02-18T09:54:13.652Z,10.27
2019-02-18T09:56:42.475Z,10.73
2019-02-18T09:59:11.314Z,10.90
2019-02-18T10:01:40.115Z,10.13
2019-02-18T10:04:08.937Z,11.33
2019-02-18T10:06:37.666Z,10.80
2019-02-18T10:09:06.523Z,11.00
2019-02-18T10:11:35.320Z,10.60
2019-02-18T10:14:04.282Z,10.73
2019-02-18T10:16:32.999Z,10.77
2019-02-18T10:19:01.762Z,10.30
2019-02-18T10:21:30.517Z,10.33
2019-02-18T10:23:59.259Z,10.37
2019-02-18T10:26:28.081Z,9.70
2019-02-18T10:28:56.915Z,10.67
2019-02-18T10:31:25.722Z,10.17
2019-02-18T10:33:54.491Z,10.37
2019-02-18T10:36:23.275Z,10.43
2019-02-18T10:38:52.075Z,9.87
2019-02-18T10:41:20.814Z,8.97
2019-02-18T10:43:49.643Z,9.23
2019-02-18T10:46:18.338Z,10.10
2019-02-18T10:48:47.210Z,10.40
2019-02-18T10:51:15.990Z,10.60
2019-02-18T10:53:44.797Z,10.23
2019-02-18T10:56:13.587Z,10.90
2019-02-18T10:58:42.425Z,10.77
2019-02-18T11:01:11.214Z,10.40
2019-02-18T11:03:40.015Z,10.23
2019-02-18T11:06:09.396Z,10.53
2019-02-18T11:08:38.384Z,9.20
2019-02-18T11:11:16.432Z,10.00
2019-02-18T11:13:37.609Z,9.50
2019-02-18T11:16:06.490Z,9.97
2019-02-18T11:18:35.322Z,9.97
2019-02-18T11:21:04.135Z,9.57
2019-02-18T11:23:32.947Z,8.17
2019-02-18T11:26:01.762Z,8.43
2019-02-18T11:28:30.762Z,8.80
2019-02-18T11:30:59.579Z,8.77
2019-02-18T11:33:28.372Z,8.23
2019-02-18T11:35:57.202Z,8.13
2019-02-18T11:38:26.017Z,8.23
2019-02-18T11:40:54.830Z,8.70
2019-02-18T11:43:23.652Z,8.03
2019-02-18T11:45:52.440Z,9.87
2019-02-18T11:48:21.213Z,8.43
2019-02-18T11:50:50.463Z,9.23
2019-02-18T11:53:19.216Z,8.53
2019-02-18T11:55:48.018Z,9.17
2019-02-18T11:58:16.897Z,9.03
2019-02-18T12:00:45.674Z,9.60
2019-02-18T12:03:14.538Z,8.60
2019-02-18T12:05:43.677Z,9.40
2019-02-18T12:08:12.492Z,8.90
2019-02-18T12:10:41.308Z,9.03
2019-02-18T12:13:10.172Z,9.07
2019-02-18T12:15:39.041Z,8.67
2019-02-18T12:18:07.801Z,9.40
2019-02-18T12:20:36.968Z,9.40
2019-02-18T12:23:05.941Z,9.97
2019-02-18T12:25:34.756Z,9.17
2019-02-18T12:28:03.626Z,8.43
2019-02-18T12:30:32.613Z,9.47
2019-02-18T12:33:01.455Z,9.20
2019-02-18T12:35:33.998Z,9.77
2019-02-18T12:38:00.731Z,10.27
2019-02-18T12:40:29.478Z,9.30
2019-02-18T12:42:58.277Z,9.53
2019-02-18T12:45:27.087Z,10.17
2019-02-18T12:47:55.867Z,8.90
2019-02-18T12:50:24.656Z,9.80
2019-02-18T12:52:53.830Z,9.73
2019-02-18T12:55:22.773Z,9.63
2019-02-18T12:57:51.769Z,10.03
2019-02-18T13:00:20.604Z,10.83
2019-02-18T13:02:49.392Z,11.07
2019-02-18T13:05:18.219Z,9.73
2019-02-18T13:07:47.001Z,10.43
2019-02-18T13:10:16.439Z,10.37
2019-02-18T13:12:45.521Z,10.30
2019-02-18T13:15:14.454Z,10.73
2019-02-18T13:17:43.286Z,10.23
2019-02-18T13:20:12.194Z,10.47
2019-02-18T13:22:40.975Z,12.07
2019-02-18T13:25:09.903Z,11.40
2019-02-18T13:27:41.357Z,11.37
2019-02-18T13:30:11.325Z,10.70
2019-02-18T13:32:40.118Z,11.27
2019-02-18T13:35:08.934Z,11.23
2019-02-18T13:37:37.771Z,11.23
2019-02-18T13:40:06.789Z,10.90
2019-02-18T13:42:35.614Z,11.40
2019-02-18T13:45:04.878Z,11.57
2019-02-18T13:47:33.699Z,11.60
2019-02-18T13:50:02.473Z,11.53
2019-02-18T13:52:31.304Z,11.50
2019-02-18T13:55:01.620Z,11.47
2019-02-18T13:57:30.579Z,10.87
2019-02-18T13:59:59.696Z,11.13
2019-02-18T14:02:28.532Z,11.17
2019-02-18T14:04:57.314Z,11.47
2019-02-18T14:07:26.214Z,11.17
2019-02-18T14:09:55.008Z,11.57
2019-02-18T14:12:23.830Z,11.43
2019-02-18T14:14:53.047Z,11.43
2019-02-18T14:17:21.898Z,11.30
2019-02-18T14:19:50.808Z,12.07
2019-02-18T14:22:19.640Z,12.30
2019-02-18T14:24:48.525Z,11.90
2019-02-18T14:27:18.686Z,10.67
2019-02-18T14:29:47.767Z,11.53
2019-02-18T14:32:16.571Z,11.67
2019-02-18T14:34:45.372Z,10.60
2019-02-18T14:37:14.235Z,10.67
2019-02-18T14:39:43.005Z,11.27
2019-02-18T14:42:11.926Z,11.97
2019-02-18T14:44:40.743Z,10.97
2019-02-18T14:47:09.557Z,11.27
2019-02-18T14:49:38.360Z,11.13
2019-02-18T14:52:07.499Z,11.80
2019-02-18T14:54:36.296Z,11.30
2019-02-18T14:57:05.131Z,10.83
2019-02-18T14:59:33.953Z,10.77
2019-02-18T15:02:02.889Z,11.17
2019-02-18T15:04:31.667Z,10.53
2019-02-18T15:07:00.507Z,11.23
2019-02-18T15:09:29.321Z,10.87
2019-02-18T15:11:58.146Z,11.57
2019-02-18T15:14:26.942Z,11.20
2019-02-18T15:16:56.077Z,11.43
2019-02-18T15:19:24.868Z,11.07
2019-02-18T15:21:53.815Z,10.83
2019-02-18T15:24:22.607Z,10.53
2019-02-18T15:26:51.467Z,11.20
2019-02-18T15:29:23.043Z,11.53
2019-02-18T15:31:52.698Z,10.37
2019-02-18T15:34:21.465Z,10.43
2019-02-18T15:36:54.005Z,10.57
2019-02-18T15:39:22.871Z,12.07
2019-02-18T15:41:59.806Z,11.33
2019-02-18T15:44:28.903Z,10.60
2019-02-18T15:46:57.766Z,10.80
2019-02-18T15:49:26.995Z,11.03
2019-02-18T15:51:56.025Z,11.27
2019-02-18T15:54:26.223Z,11.00
2019-02-18T15:56:55.151Z,10.97
2019-02-18T15:59:24.246Z,10.93
2019-02-18T16:01:53.063Z,11.33
2019-02-18T16:04:28.527Z,10.77
2019-02-18T16:06:59.381Z,10.30
2019-02-18T16:09:29.208Z,10.50
2019-02-18T16:11:58.525Z,10.53
2019-02-18T16:14:31.329Z,11.23
2019-02-18T16:17:03.860Z,9.87
2019-02-18T16:19:32.711Z,10.93
2019-02-18T16:22:01.496Z,10.57
2019-02-18T16:24:30.350Z,10.33
2019-02-18T16:27:08.559Z,10.17
2019-02-18T16:29:37.554Z,9.73
2019-02-18T16:32:08.491Z,10.07
2019-02-18T16:34:38.582Z,9.93
2019-02-18T16:37:09.094Z,11.13
2019-02-18T16:39:42.287Z,10.03
2019-02-18T16:42:10.848Z,10.73
2019-02-18T16:44:39.827Z,10.53
2019-02-18T16:47:08.648Z,10.20
2019-02-18T16:49:37.812Z,10.57
2019-02-18T16:52:09.023Z,10.73
2019-02-18T16:54:37.495Z,10.70
2019-02-18T16:57:06.450Z,10.53
2019-02-18T16:59:35.286Z,10.63
2019-02-18T17:02:04.101Z,10.77
2019-02-18T17:04:33.023Z,9.97
2019-02-18T17:07:02.146Z,9.90
2019-02-18T17:09:31.009Z,10.47
2019-02-18T17:11:59.868Z,10.23
2019-02-18T17:14:28.801Z,10.83
2019-02-18T17:16:57.602Z,10.67
2019-02-18T17:19:26.441Z,10.67
2019-02-18T17:21:55.272Z,10.20
2019-02-18T17:24:24.098Z,9.50
2019-02-18T17:26:52.963Z,11.00
2019-02-18T17:29:21.817Z,11.00
2019-02-18T17:31:50.631Z,9.73
2019-02-18T17:34:19.456Z,10.57
2019-02-18T17:36:48.349Z,9.27
2019-02-18T17:39:17.404Z,9.77
2019-02-18T17:41:46.299Z,10.47
2019-02-18T17:44:20.158Z,10.50
2019-02-18T17:46:48.681Z,10.70
2019-02-18T17:49:17.886Z,11.47
2019-02-18T17:51:46.810Z,10.33
2019-02-18T17:54:15.784Z,10.00
2019-02-18T17:56:44.608Z,10.13
2019-02-18T17:59:13.445Z,10.43
2019-02-18T18:01:42.261Z,9.73
2019-02-18T18:04:11.096Z,10.33
2019-02-18T18:06:42.368Z,11.60
2019-02-18T18:09:11.667Z,11.47
2019-02-18T18:11:41.832Z,10.17
2019-02-18T18:14:13.906Z,12.30
2019-02-18T18:16:42.759Z,11.03
2019-02-18T18:19:11.524Z,10.13
2019-02-18T18:21:40.354Z,9.77
2019-02-18T18:24:09.174Z,10.83
2019-02-18T18:26:37.998Z,10.33
2019-02-18T18:29:06.817Z,10.63
2019-02-18T18:31:35.637Z,10.43
2019-02-18T18:34:04.484Z,11.97
2019-02-18T18:36:33.303Z,12.13
2019-02-18T18:39:02.569Z,12.43
2019-02-18T18:41:31.372Z,11.47
2019-02-18T18:44:00.279Z,11.43
2019-02-18T18:46:29.218Z,12.03
2019-02-18T18:49:00.141Z,11.47
2019-02-18T18:51:33.586Z,11.80
2019-02-18T18:54:02.634Z,12.00
2019-02-18T18:56:31.590Z,11.57
2019-02-18T18:59:06.091Z,12.67
2019-02-18T19:01:34.571Z,11.40
2019-02-18T19:04:03.562Z,10.20
2019-02-18T19:06:32.543Z,11.73
2019-02-18T19:09:03.074Z,11.40
2019-02-18T19:11:31.909Z,11.83
2019-02-18T19:14:00.982Z,12.17
2019-02-18T19:16:29.920Z,14.03
2019-02-18T19:19:02.871Z,16.80
2019-02-18T19:21:43.293Z,13.03
2019-02-18T19:24:12.201Z,11.93
2019-02-18T19:26:43.147Z,11.73
2019-02-18T19:29:12.095Z,11.07
2019-02-18T19:31:41.443Z,11.20
2019-02-18T19:34:10.273Z,11.23
2019-02-18T19:36:39.220Z,11.50
2019-02-18T19:39:08.382Z,10.97
2019-02-18T19:41:37.278Z,11.20
2019-02-18T19:44:06.239Z,10.63
2019-02-18T19:46:35.464Z,11.13
2019-02-18T19:49:04.457Z,10.70
2019-02-18T19:51:33.435Z,10.67
2019-02-18T19:54:02.319Z,10.93
2019-02-18T19:56:33.226Z,11.70
2019-02-18T19:59:02.140Z,11.87
2019-02-18T20:01:31.933Z,11.57
2019-02-18T20:04:02.729Z,12.23
2019-02-18T20:06:48.050Z,10.73
2019-02-18T20:09:17.167Z,11.27
2019-02-18T20:11:46.518Z,10.73
2019-02-18T20:14:15.561Z,11.27
2019-02-18T20:16:44.538Z,11.63
2019-02-18T20:19:13.495Z,11.23
2019-02-18T20:21:43.337Z,11.03
2019-02-18T20:24:12.451Z,11.43
2019-02-18T20:26:44.565Z,12.07
2019-02-18T20:29:15.296Z,11.47
2019-02-18T20:31:44.281Z,12.03
2019-02-18T20:34:13.198Z,11.50
2019-02-18T20:36:42.142Z,10.53
2019-02-18T20:39:11.254Z,11.03
2019-02-18T20:41:43.274Z,11.23
2019-02-18T20:44:12.751Z,11.13
2019-02-18T20:46:41.741Z,10.43
2019-02-18T20:49:10.682Z,11.60
2019-02-18T20:51:39.666Z,11.87
2019-02-18T20:54:09.019Z,10.37
2019-02-18T20:56:37.981Z,10.83
2019-02-18T20:59:06.909Z,10.93
2019-02-18T21:01:35.828Z,11.23
2019-02-18T21:04:09.942Z,12.53
2019-02-18T21:06:38.864Z,11.03
2019-02-18T21:09:07.999Z,10.90
2019-02-18T21:11:36.956Z,10.83
2019-02-18T21:14:05.783Z,11.77
2019-02-18T21:16:36.951Z,11.13
2019-02-18T21:19:05.808Z,9.43
2019-02-18T21:21:34.689Z,11.20
2019-02-18T21:24:03.978Z,11.17
2019-02-18T21:26:32.847Z,12.40
2019-02-18T21:29:01.737Z,10.37
2019-02-18T21:31:32.560Z,10.97
2019-02-18T21:34:01.395Z,10.23
2019-02-18T21:36:30.287Z,9.63
2019-02-18T21:38:59.140Z,10.23
2019-02-18T21:41:28.452Z,10.27
2019-02-18T21:43:57.432Z,10.83
2019-02-18T21:46:26.318Z,9.67
2019-02-18T21:48:55.106Z,9.33
2019-02-18T21:51:24.039Z,9.97
2019-02-18T21:53:53.239Z,10.20
2019-02-18T21:56:22.048Z,9.70
2019-02-18T21:58:50.916Z,8.80
2019-02-18T22:01:19.772Z,9.37
2019-02-18T22:03:48.542Z,9.33
2019-02-18T22:06:17.351Z,9.80
2019-02-18T22:08:46.535Z,9.47
2019-02-18T22:11:15.291Z,9.13
2019-02-18T22:13:44.193Z,9.80
2019-02-18T22:16:12.927Z,10.13
2019-02-18T22:18:41.676Z,10.00
2019-02-18T22:21:10.464Z,9.87
2019-02-18T22:23:39.321Z,10.17
2019-02-18T22:26:08.060Z,9.70
2019-02-18T22:28:36.922Z,9.73
2019-02-18T22:31:05.808Z,10.10
2019-02-18T22:33:34.568Z,9.07
2019-02-18T22:36:03.666Z,10.20
2019-02-18T22:38:32.479Z,9.87
2019-02-18T22:41:01.649Z,9.77
2019-02-18T22:43:30.640Z,9.17
2019-02-18T22:45:59.491Z,10.30
2019-02-18T22:48:28.284Z,10.27
2019-02-18T22:50:57.133Z,10.50
2019-02-18T22:53:25.934Z,9.03
2019-02-18T22:55:54.731Z,9.53
2019-02-18T22:58:23.508Z,9.93
2019-02-18T23:01:00.447Z,9.90
2019-02-18T23:03:29.420Z,9.60
2019-02-18T23:05:58.247Z,10.20
2019-02-18T23:08:27.069Z,9.77
2019-02-18T23:10:55.860Z,9.23
2019-02-18T23:13:24.628Z,10.07
2019-02-18T23:15:53.529Z,9.17
2019-02-18T23:18:22.357Z,8.77
2019-02-18T23:20:51.173Z,9.70
2019-02-18T23:23:19.973Z,8.83
2019-02-18T23:25:48.775Z,9.10
2019-02-18T23:28:17.985Z,9.73
2019-02-18T23:30:46.841Z,8.87
2019-02-18T23:33:15.638Z,8.50
2019-02-18T23:35:44.446Z,9.63
2019-02-18T23:38:13.187Z,8.83
2019-02-18T23:40:41.920Z,8.90
2019-02-18T23:43:10.636Z,9.40
2019-02-18T23:45:39.383Z,9.07
2019-02-18T23:48:08.094Z,8.97
2019-02-18T23:50:36.888Z,10.03
2019-02-18T23:53:05.679Z,9.50
2019-02-18T23:55:34.484Z,9.23
2019-02-18T23:58:03.212Z,9.27
